createdAt,value
2023-03-19T00:01:09.488Z,2.17
2023-03-19T00:03:38.310Z,2.25
2023-03-19T00:06:07.604Z,2.25
2023-03-19T00:08:36.085Z,2.75
2023-03-19T00:11:09.749Z,2.03
2023-03-19T00:13:38.260Z,2.30
2023-03-19T00:16:08.149Z,1.80
2023-03-19T00:18:36.904Z,2.03
2023-03-19T00:21:06.082Z,1.90
2023-03-19T00:23:34.636Z,1.83
2023-03-19T00:26:03.955Z,1.80
2023-03-19T00:28:34.104Z,1.70
2023-03-19T00:31:10.454Z,1.85
2023-03-19T00:33:39.336Z,2.05
2023-03-19T00:36:08.953Z,1.73
2023-03-19T00:38:37.948Z,1.92
2023-03-19T00:41:07.887Z,1.90
2023-03-19T00:43:37.760Z,1.70
2023-03-19T00:46:07.022Z,1.70
2023-03-19T00:48:35.618Z,1.70
2023-03-19T00:51:08.485Z,1.70
2023-03-19T00:53:39.698Z,1.63
2023-03-19T00:56:09.026Z,1.90
2023-03-19T00:58:41.051Z,1.88
2023-03-19T01:01:09.931Z,1.73
2023-03-19T01:03:38.687Z,1.88
2023-03-19T01:06:10.434Z,1.90
2023-03-19T01:08:38.961Z,2.40
2023-03-19T01:11:10.449Z,2.28
2023-03-19T01:13:41.466Z,2.22
2023-03-19T01:16:10.560Z,1.77
2023-03-19T01:18:40.189Z,2.50
2023-03-19T01:21:08.895Z,2.10
2023-03-19T01:23:37.433Z,2.53
2023-03-19T01:26:07.299Z,2.03
2023-03-19T01:28:36.074Z,2.30
2023-03-19T01:31:09.432Z,2.00
2023-03-19T01:33:39.186Z,2.20
2023-03-19T01:36:09.012Z,2.05
2023-03-19T01:38:37.536Z,2.42
2023-03-19T01:41:06.621Z,2.30
2023-03-19T01:43:35.232Z,2.35
2023-03-19T01:46:09.239Z,2.40
2023-03-19T01:48:43.956Z,2.03
2023-03-19T01:51:15.869Z,1.80
2023-03-19T01:53:49.412Z,2.10
2023-03-19T01:56:20.844Z,1.50
2023-03-19T01:58:54.904Z,1.57
2023-03-19T02:01:25.175Z,1.70
2023-03-19T02:03:55.048Z,1.30
2023-03-19T02:06:25.438Z,1.60
2023-03-19T02:08:54.561Z,1.77
2023-03-19T02:11:23.988Z,2.27
2023-03-19T02:13:52.475Z,1.30
2023-03-19T02:16:21.412Z,1.67
2023-03-19T02:18:51.651Z,1.45
2023-03-19T02:21:22.068Z,1.38
2023-03-19T02:23:58.456Z,1.10
2023-03-19T02:26:31.088Z,1.20
2023-03-19T02:28:59.921Z,1.20
2023-03-19T02:31:29.261Z,1.15
2023-03-19T02:34:06.683Z,1.38
2023-03-19T02:36:39.560Z,1.53
2023-03-19T02:39:14.444Z,1.13
2023-03-19T02:41:46.051Z,1.35
2023-03-19T02:44:14.570Z,1.30
2023-03-19T02:46:43.330Z,1.30
2023-03-19T02:49:12.260Z,1.10
2023-03-19T02:51:44.524Z,1.30
2023-03-19T02:54:13.068Z,1.42
2023-03-19T02:56:43.130Z,1.20
2023-03-19T02:59:11.593Z,1.30
2023-03-19T03:01:40.162Z,1.40
2023-03-19T03:04:08.883Z,1.27
2023-03-19T03:06:37.442Z,1.40
2023-03-19T03:09:07.270Z,1.00
2023-03-19T03:11:35.887Z,1.55
2023-03-19T03:14:06.008Z,1.77
2023-03-19T03:16:34.777Z,1.50
2023-03-19T03:19:03.486Z,1.10
2023-03-19T03:21:34.351Z,1.35
2023-03-19T03:24:04.403Z,1.45
2023-03-19T03:26:34.781Z,1.40
2023-03-19T03:29:03.637Z,1.30
2023-03-19T03:31:33.699Z,1.50
2023-03-19T03:34:02.436Z,1.40
2023-03-19T03:36:31.060Z,1.30
2023-03-19T03:38:59.830Z,1.47
2023-03-19T03:41:28.508Z,1.30
2023-03-19T03:43:57.667Z,1.40
2023-03-19T03:46:26.242Z,1.10
2023-03-19T03:48:56.225Z,0.82
2023-03-19T03:51:24.912Z,1.20
2023-03-19T03:53:53.357Z,1.25
2023-03-19T03:56:21.921Z,1.20
2023-03-19T03:58:51.225Z,1.10
2023-03-19T04:01:20.745Z,1.20
2023-03-19T04:03:49.556Z,1.15
2023-03-19T04:06:21.872Z,1.30
2023-03-19T04:08:51.095Z,1.30
2023-03-19T04:11:19.779Z,1.52
2023-03-19T04:13:48.342Z,1.15
2023-03-19T04:16:17.840Z,1.50
2023-03-19T04:18:46.364Z,1.90
2023-03-19T04:21:15.113Z,1.20
2023-03-19T04:23:44.925Z,1.20
2023-03-19T04:26:13.959Z,1.35
2023-03-19T04:28:42.496Z,1.30
2023-03-19T04:31:12.670Z,1.42
2023-03-19T04:33:41.225Z,1.35
2023-03-19T04:36:10.335Z,1.30
2023-03-19T04:38:39.268Z,1.20
2023-03-19T04:41:09.131Z,1.13
2023-03-19T04:43:38.141Z,1.58
2023-03-19T04:46:08.201Z,0.95
2023-03-19T04:48:37.878Z,1.10
2023-03-19T04:51:08.894Z,1.10
2023-03-19T04:53:38.021Z,1.50
2023-03-19T04:56:09.340Z,1.33
2023-03-19T04:58:37.793Z,1.15
2023-03-19T05:01:06.559Z,1.10
2023-03-19T05:03:35.424Z,1.20
2023-03-19T05:06:04.287Z,1.23
2023-03-19T05:08:33.092Z,1.30
2023-03-19T05:11:01.819Z,1.40
2023-03-19T05:13:32.144Z,1.30
2023-03-19T05:16:00.790Z,1.05
2023-03-19T05:18:29.584Z,1.40
2023-03-19T05:20:58.655Z,1.10
2023-03-19T05:23:28.167Z,1.50
2023-03-19T05:25:57.512Z,1.42
2023-03-19T05:28:26.166Z,1.50
2023-03-19T05:30:57.237Z,1.30
2023-03-19T05:33:25.849Z,1.30
2023-03-19T05:35:55.426Z,1.08
2023-03-19T05:38:25.180Z,1.23
2023-03-19T05:40:53.744Z,1.40
2023-03-19T05:43:22.500Z,1.33
2023-03-19T05:45:53.345Z,1.25
2023-03-19T05:48:23.427Z,1.13
2023-03-19T05:50:52.717Z,1.42
2023-03-19T05:53:21.623Z,1.90
2023-03-19T05:55:50.325Z,1.92
2023-03-19T05:58:19.002Z,2.00
2023-03-19T06:00:48.638Z,2.20
2023-03-19T06:03:17.286Z,1.70
2023-03-19T06:05:50.216Z,2.70
2023-03-19T06:08:18.933Z,2.00
2023-03-19T06:10:47.498Z,1.77
2023-03-19T06:13:16.229Z,3.50
2023-03-19T06:15:44.722Z,3.78
2023-03-19T06:18:13.383Z,4.00
2023-03-19T06:20:42.097Z,3.03
2023-03-19T06:23:12.324Z,2.55
2023-03-19T06:25:41.720Z,2.45
2023-03-19T06:28:10.229Z,2.20
2023-03-19T06:30:39.082Z,1.70
2023-03-19T06:33:08.084Z,2.15
2023-03-19T06:35:36.820Z,2.17
2023-03-19T06:38:05.584Z,2.10
2023-03-19T06:40:36.403Z,2.72
2023-03-19T06:43:04.970Z,2.80
2023-03-19T06:45:33.715Z,5.40
2023-03-19T06:48:02.391Z,4.70
2023-03-19T06:50:31.070Z,2.45
2023-03-19T06:52:59.706Z,2.70
2023-03-19T06:55:28.399Z,2.15
2023-03-19T06:57:58.630Z,2.40
2023-03-19T07:00:27.968Z,2.10
2023-03-19T07:02:56.409Z,1.70
2023-03-19T07:05:25.047Z,2.00
2023-03-19T07:07:53.497Z,2.25
2023-03-19T07:10:24.210Z,2.00
2023-03-19T07:12:52.874Z,1.83
2023-03-19T07:15:23.015Z,2.00
2023-03-19T07:17:51.786Z,1.90
2023-03-19T07:20:20.506Z,2.20
2023-03-19T07:22:48.950Z,1.95
2023-03-19T07:25:17.677Z,3.42
2023-03-19T07:27:46.815Z,4.20
2023-03-19T07:30:16.230Z,7.18
2023-03-19T07:32:46.295Z,5.75
2023-03-19T07:35:14.995Z,6.70
2023-03-19T07:37:44.192Z,10.50
2023-03-19T07:40:13.472Z,4.72
2023-03-19T07:42:44.923Z,3.97
2023-03-19T07:45:13.993Z,5.53
2023-03-19T07:47:42.464Z,4.53
2023-03-19T07:50:12.900Z,2.72
2023-03-19T07:52:42.166Z,7.03
2023-03-19T07:55:11.468Z,9.85
2023-03-19T07:57:40.816Z,5.97
2023-03-19T08:00:12.117Z,3.90
2023-03-19T08:02:41.225Z,2.38
2023-03-19T08:05:11.893Z,1.60
2023-03-19T08:07:40.333Z,1.60
2023-03-19T08:10:10.825Z,2.50
2023-03-19T08:12:41.324Z,2.90
2023-03-19T08:15:12.649Z,2.92
2023-03-19T08:17:41.138Z,10.05
2023-03-19T08:20:13.945Z,7.45
2023-03-19T08:22:42.918Z,8.63
2023-03-19T08:25:12.191Z,6.80
2023-03-19T08:27:41.732Z,5.38
2023-03-19T08:30:13.363Z,5.43
2023-03-19T08:32:42.125Z,2.45
2023-03-19T08:35:12.891Z,2.28
2023-03-19T08:37:41.606Z,1.93
2023-03-19T08:40:12.025Z,9.18
2023-03-19T08:42:45.081Z,2.50
2023-03-19T08:45:16.306Z,2.08
2023-03-19T08:47:45.448Z,1.92
2023-03-19T08:50:15.594Z,2.20
2023-03-19T08:52:44.444Z,2.28
2023-03-19T08:55:14.358Z,3.30
2023-03-19T08:57:43.060Z,3.90
2023-03-19T09:00:13.883Z,3.47
2023-03-19T09:02:42.338Z,2.30
2023-03-19T09:05:11.157Z,2.33
2023-03-19T09:07:41.027Z,2.10
2023-03-19T09:10:10.801Z,2.25
2023-03-19T09:12:39.253Z,2.10
2023-03-19T09:15:09.392Z,2.10
2023-03-19T09:17:37.868Z,2.10
2023-03-19T09:20:08.123Z,2.53
2023-03-19T09:22:36.825Z,2.15
2023-03-19T09:25:08.528Z,1.80
2023-03-19T09:27:39.758Z,1.87
2023-03-19T09:30:10.576Z,1.83
2023-03-19T09:32:39.380Z,2.20
2023-03-19T09:35:09.506Z,2.45
2023-03-19T09:37:37.986Z,2.20
2023-03-19T09:40:12.153Z,2.53
2023-03-19T09:42:54.871Z,2.42
2023-03-19T09:45:24.697Z,4.88
2023-03-19T09:47:58.835Z,3.10
2023-03-19T09:50:29.141Z,2.20
2023-03-19T09:53:03.612Z,2.40
2023-03-19T09:55:42.890Z,2.50
2023-03-19T09:58:20.898Z,2.33
2023-03-19T10:00:52.063Z,2.17
2023-03-19T10:03:42.590Z,2.10
2023-03-19T10:06:32.139Z,3.00
2023-03-19T10:09:26.350Z,1.83
2023-03-19T10:12:13.089Z,1.65
2023-03-19T10:15:05.715Z,1.70
2023-03-19T10:17:38.765Z,1.92
2023-03-19T10:20:12.188Z,1.90
2023-03-19T10:22:46.323Z,1.40
2023-03-19T10:25:22.146Z,1.85
2023-03-19T10:28:03.354Z,1.67
2023-03-19T10:30:35.121Z,2.15
2023-03-19T10:33:18.230Z,2.10
2023-03-19T10:35:50.666Z,1.80
2023-03-19T10:38:23.226Z,1.83
2023-03-19T10:41:07.130Z,1.70
2023-03-19T10:43:39.006Z,1.80
2023-03-19T10:46:07.499Z,1.80
2023-03-19T10:48:45.776Z,1.67
2023-03-19T10:51:17.696Z,1.80
2023-03-19T10:53:46.494Z,1.70
2023-03-19T10:56:23.180Z,1.75
2023-03-19T10:59:02.223Z,1.77
2023-03-19T11:01:35.657Z,1.70
2023-03-19T11:04:13.891Z,1.77
2023-03-19T11:06:42.398Z,1.60
2023-03-19T11:09:21.222Z,1.90
2023-03-19T11:11:53.401Z,1.93
2023-03-19T11:14:33.458Z,1.80
2023-03-19T11:17:08.672Z,1.58
2023-03-19T11:19:43.921Z,1.73
2023-03-19T11:22:21.354Z,2.00
2023-03-19T11:24:56.947Z,1.90
2023-03-19T11:27:31.553Z,1.83
2023-03-19T11:30:02.436Z,1.77
2023-03-19T11:33:20.928Z,1.88
2023-03-19T11:35:58.351Z,2.10
2023-03-19T11:38:36.614Z,1.90
2023-03-19T11:41:18.807Z,2.00
2023-03-19T11:43:56.494Z,1.98
2023-03-19T11:46:46.284Z,2.28
2023-03-19T11:49:53.091Z,2.22
2023-03-19T11:52:31.227Z,2.20
2023-03-19T11:55:16.421Z,2.17
2023-03-19T11:58:09.698Z,2.33
2023-03-19T12:00:43.476Z,2.00
2023-03-19T12:04:00.658Z,2.30
2023-03-19T12:06:41.518Z,1.97
2023-03-19T12:09:22.696Z,2.45
2023-03-19T12:11:56.122Z,1.80
2023-03-19T12:14:42.573Z,1.80
2023-03-19T12:17:34.890Z,2.15
2023-03-19T12:20:32.839Z,1.70
2023-03-19T12:23:08.978Z,1.50
2023-03-19T12:25:55.145Z,2.05
2023-03-19T12:28:28.350Z,1.52
2023-03-19T12:31:31.144Z,1.70
2023-03-19T12:34:21.036Z,1.80
2023-03-19T12:36:59.218Z,1.48
2023-03-19T12:39:37.436Z,1.48
2023-03-19T12:42:09.928Z,2.00
2023-03-19T12:44:41.700Z,1.80
2023-03-19T12:47:18.157Z,1.53
2023-03-19T12:49:52.495Z,1.58
2023-03-19T12:52:27.102Z,1.45
2023-03-19T12:55:03.539Z,1.52
2023-03-19T12:57:38.999Z,1.63
2023-03-19T13:00:18.133Z,1.40
2023-03-19T13:02:51.826Z,1.30
2023-03-19T13:05:28.331Z,1.42
2023-03-19T13:08:05.310Z,1.60
2023-03-19T13:10:34.369Z,1.65
2023-03-19T13:13:24.132Z,1.50
2023-03-19T13:15:56.984Z,1.38
2023-03-19T13:18:39.068Z,1.52
2023-03-19T13:21:23.528Z,1.80
2023-03-19T13:24:05.666Z,1.60
2023-03-19T13:26:36.049Z,1.53
2023-03-19T13:29:14.258Z,1.50
2023-03-19T13:31:43.496Z,1.50
2023-03-19T13:34:27.363Z,1.92
2023-03-19T13:37:03.149Z,1.50
2023-03-19T13:39:35.672Z,1.73
2023-03-19T13:42:38.860Z,2.00
2023-03-19T13:45:33.204Z,2.00
2023-03-19T13:48:36.727Z,2.95
2023-03-19T13:51:11.018Z,4.18
2023-03-19T13:53:42.775Z,3.23
2023-03-19T13:56:28.527Z,3.20
2023-03-19T13:59:27.278Z,2.08
2023-03-19T14:01:55.956Z,9.35
2023-03-19T14:04:29.750Z,2.60
2023-03-19T14:07:09.647Z,2.40
2023-03-19T14:09:43.479Z,2.50
2023-03-19T14:12:32.973Z,2.17
2023-03-19T14:15:17.713Z,2.55
2023-03-19T14:17:56.579Z,2.88
2023-03-19T14:20:37.488Z,2.83
2023-03-19T14:23:36.207Z,2.10
2023-03-19T14:26:18.323Z,2.50
2023-03-19T14:28:58.180Z,2.00
2023-03-19T14:31:44.001Z,4.00
2023-03-19T14:34:23.040Z,2.00
2023-03-19T14:37:00.353Z,2.35
2023-03-19T14:39:32.515Z,2.13
2023-03-19T14:42:07.354Z,1.95
2023-03-19T14:45:36.420Z,2.83
2023-03-19T14:48:55.381Z,2.33
2023-03-19T14:51:56.431Z,2.65
2023-03-19T14:54:32.583Z,2.60
2023-03-19T14:57:08.644Z,2.40
2023-03-19T14:59:41.001Z,2.75
2023-03-19T15:02:26.772Z,3.07
2023-03-19T15:04:58.291Z,2.33
2023-03-19T15:07:33.948Z,2.70
2023-03-19T15:10:06.635Z,2.50
2023-03-19T15:13:14.625Z,2.50
2023-03-19T15:16:08.545Z,2.67
2023-03-19T15:18:37.964Z,2.70
2023-03-19T15:21:07.457Z,3.03
2023-03-19T15:23:41.076Z,3.65
2023-03-19T15:26:12.002Z,5.47
2023-03-19T15:28:50.082Z,2.70
2023-03-19T15:31:31.993Z,2.40
2023-03-19T15:34:23.717Z,3.35
2023-03-19T15:36:57.239Z,5.68
2023-03-19T15:39:31.343Z,5.22
2023-03-19T15:42:02.112Z,5.13
2023-03-19T15:44:36.550Z,3.22
2023-03-19T15:47:07.392Z,1.20
2023-03-19T15:49:41.058Z,1.30
2023-03-19T15:52:14.428Z,1.00
2023-03-19T15:54:44.943Z,1.20
2023-03-19T15:57:16.160Z,1.17
2023-03-19T15:59:45.210Z,0.90
2023-03-19T16:02:23.729Z,1.00
2023-03-19T16:05:21.406Z,1.00
2023-03-19T16:07:45.043Z,2.10
2023-03-19T16:10:38.489Z,1.38
2023-03-19T16:13:27.592Z,1.20
2023-03-19T16:16:02.358Z,0.98
2023-03-19T16:18:32.732Z,0.90
2023-03-19T16:21:09.350Z,0.70
2023-03-19T16:23:43.998Z,1.42
2023-03-19T16:26:22.159Z,1.13
2023-03-19T16:29:01.160Z,1.10
2023-03-19T16:31:33.957Z,1.98
2023-03-19T16:34:02.614Z,1.70
2023-03-19T16:36:34.043Z,3.40
2023-03-19T16:39:35.217Z,1.92
2023-03-19T16:42:31.978Z,2.15
2023-03-19T16:45:05.041Z,1.60
2023-03-19T16:47:33.747Z,1.90
2023-03-19T16:50:02.240Z,1.67
2023-03-19T16:52:31.788Z,2.22
2023-03-19T16:55:01.419Z,1.90
2023-03-19T16:57:31.372Z,2.20
2023-03-19T17:00:00.169Z,2.07
2023-03-19T17:02:29.311Z,1.60
2023-03-19T17:04:57.879Z,1.70
2023-03-19T17:07:26.498Z,1.90
2023-03-19T17:09:55.185Z,1.70
2023-03-19T17:12:23.709Z,1.47
2023-03-19T17:14:54.486Z,1.20
2023-03-19T17:17:23.700Z,1.00
2023-03-19T17:19:52.826Z,0.95
2023-03-19T17:22:23.306Z,0.90
2023-03-19T17:24:51.964Z,0.70
2023-03-19T17:27:20.463Z,1.00
2023-03-19T17:29:49.127Z,1.02
2023-03-19T17:32:21.745Z,0.80
2023-03-19T17:34:50.190Z,0.88
2023-03-19T17:37:18.640Z,0.80
2023-03-19T17:39:47.477Z,1.00
2023-03-19T17:42:22.306Z,0.93
2023-03-19T17:44:51.075Z,0.68
2023-03-19T17:47:21.098Z,0.95
2023-03-19T17:49:49.576Z,0.80
2023-03-19T17:52:20.219Z,0.75
2023-03-19T17:54:48.643Z,0.80
2023-03-19T17:57:17.983Z,1.20
2023-03-19T17:59:46.545Z,1.52
2023-03-19T18:02:28.385Z,1.40
2023-03-19T18:04:56.862Z,1.00
2023-03-19T18:07:26.202Z,1.00
2023-03-19T18:09:54.720Z,0.70
2023-03-19T18:12:23.173Z,1.23
2023-03-19T18:14:52.158Z,0.90
2023-03-19T18:17:21.066Z,0.82
2023-03-19T18:19:52.586Z,0.90
2023-03-19T18:22:21.772Z,1.35
2023-03-19T18:24:50.255Z,0.80
2023-03-19T18:27:19.050Z,0.80
2023-03-19T18:29:47.571Z,0.90
2023-03-19T18:32:24.930Z,0.70
2023-03-19T18:34:54.874Z,0.80
2023-03-19T18:37:23.800Z,0.93
2023-03-19T18:39:52.282Z,0.80
2023-03-19T18:42:21.537Z,1.02
2023-03-19T18:44:50.024Z,0.95
2023-03-19T18:47:19.293Z,0.93
2023-03-19T18:49:47.830Z,1.08
2023-03-19T18:52:19.634Z,0.80
2023-03-19T18:54:48.586Z,0.85
2023-03-19T18:57:18.277Z,1.10
2023-03-19T18:59:47.215Z,1.10
2023-03-19T19:02:32.981Z,0.82
2023-03-19T19:05:01.875Z,1.00
2023-03-19T19:07:31.756Z,1.25
2023-03-19T19:10:00.234Z,1.10
2023-03-19T19:12:28.879Z,1.00
2023-03-19T19:14:58.929Z,0.90
2023-03-19T19:17:29.637Z,1.80
2023-03-19T19:19:58.095Z,2.10
2023-03-19T19:22:27.243Z,1.88
2023-03-19T19:24:57.132Z,3.10
2023-03-19T19:27:27.479Z,6.10
2023-03-19T19:29:56.322Z,1.90
2023-03-19T19:32:29.828Z,1.50
2023-03-19T19:34:58.473Z,1.25
2023-03-19T19:37:26.910Z,1.30
2023-03-19T19:39:56.765Z,0.98
2023-03-19T19:42:25.342Z,0.60
2023-03-19T19:44:58.844Z,0.70
2023-03-19T19:47:28.092Z,0.55
2023-03-19T19:49:56.810Z,0.80
2023-03-19T19:52:25.343Z,0.70
2023-03-19T19:54:53.807Z,0.60
2023-03-19T19:57:25.408Z,0.40
2023-03-19T19:59:55.460Z,0.50
2023-03-19T20:02:26.288Z,0.40
2023-03-19T20:04:54.820Z,0.50
2023-03-19T20:07:23.520Z,0.50
2023-03-19T20:09:52.039Z,0.60
2023-03-19T20:12:25.137Z,0.40
2023-03-19T20:14:54.110Z,0.40
2023-03-19T20:17:23.227Z,0.40
2023-03-19T20:19:52.049Z,0.45
2023-03-19T20:22:20.634Z,0.40
2023-03-19T20:24:51.322Z,0.50
2023-03-19T20:27:26.445Z,0.35
2023-03-19T20:29:55.010Z,0.40
2023-03-19T20:32:28.940Z,0.38
2023-03-19T20:34:57.408Z,0.30
2023-03-19T20:37:26.086Z,0.52
2023-03-19T20:39:54.837Z,0.40
2023-03-19T20:42:24.824Z,0.40
2023-03-19T20:45:01.622Z,0.40
2023-03-19T20:47:33.006Z,0.50
2023-03-19T20:50:02.210Z,0.30
2023-03-19T20:52:31.043Z,0.40
2023-03-19T20:54:59.727Z,0.60
2023-03-19T20:57:30.870Z,0.40
2023-03-19T21:00:03.999Z,0.60
2023-03-19T21:02:32.549Z,0.40
2023-03-19T21:05:07.832Z,0.32
2023-03-19T21:07:36.591Z,0.40
2023-03-19T21:10:18.300Z,0.30
2023-03-19T21:12:48.138Z,0.38
2023-03-19T21:15:17.803Z,0.40
2023-03-19T21:17:46.559Z,0.30
2023-03-19T21:20:21.450Z,0.43
2023-03-19T21:22:53.844Z,0.60
2023-03-19T21:25:26.287Z,0.88
2023-03-19T21:28:00.304Z,0.52
2023-03-19T21:30:29.102Z,0.60
2023-03-19T21:32:58.097Z,0.73
2023-03-19T21:35:29.095Z,1.10
2023-03-19T21:37:57.531Z,1.30
2023-03-19T21:40:31.056Z,1.90
2023-03-19T21:43:04.256Z,4.40
2023-03-19T21:45:36.754Z,2.95
2023-03-19T21:48:26.207Z,2.00
2023-03-19T21:50:55.246Z,1.05
2023-03-19T21:53:23.849Z,0.60
2023-03-19T21:55:54.558Z,0.40
2023-03-19T21:58:30.554Z,5.97
2023-03-19T22:00:59.150Z,1.98
2023-03-19T22:03:28.610Z,4.35
2023-03-19T22:05:57.574Z,2.67
2023-03-19T22:08:27.351Z,4.13
2023-03-19T22:10:59.149Z,6.05
2023-03-19T22:13:34.151Z,3.30
2023-03-19T22:16:03.243Z,4.30
2023-03-19T22:18:32.138Z,2.70
2023-03-19T22:21:00.600Z,2.38
2023-03-19T22:23:29.043Z,1.90
2023-03-19T22:25:57.494Z,1.92
2023-03-19T22:28:32.956Z,2.30
2023-03-19T22:31:04.506Z,2.33
2023-03-19T22:33:33.212Z,1.65
2023-03-19T22:36:01.719Z,4.00
2023-03-19T22:38:31.049Z,1.60
2023-03-19T22:40:59.708Z,1.50
2023-03-19T22:43:32.818Z,1.67
2023-03-19T22:46:05.197Z,2.17
2023-03-19T22:48:34.037Z,2.10
2023-03-19T22:51:02.630Z,1.80
2023-03-19T22:53:33.810Z,0.88
2023-03-19T22:56:03.205Z,1.45
2023-03-19T22:58:33.010Z,1.83
2023-03-19T23:01:01.810Z,1.75
2023-03-19T23:03:32.006Z,1.73
2023-03-19T23:06:03.472Z,1.60
2023-03-19T23:08:31.970Z,1.40
2023-03-19T23:11:01.974Z,1.65
2023-03-19T23:13:30.447Z,1.70
2023-03-19T23:16:00.945Z,1.80
2023-03-19T23:18:33.442Z,1.52
2023-03-19T23:21:02.979Z,1.30
2023-03-19T23:23:33.604Z,1.50
2023-03-19T23:26:02.519Z,1.65
2023-03-19T23:28:34.222Z,1.30
2023-03-19T23:31:04.535Z,1.45
2023-03-19T23:33:33.063Z,1.30
2023-03-19T23:36:01.849Z,1.50
2023-03-19T23:38:30.387Z,1.70
2023-03-19T23:40:59.524Z,1.80
2023-03-19T23:43:30.956Z,1.65
2023-03-19T23:46:00.328Z,1.45
2023-03-19T23:48:35.274Z,1.60
2023-03-19T23:51:04.669Z,1.42
2023-03-19T23:53:33.704Z,1.10
2023-03-19T23:56:05.780Z,1.60
2023-03-19T23:58:40.231Z,1.10
